createdAt,value
2022-10-22T00:01:16.905Z,100512.81
2022-10-22T00:03:43.525Z,100527.50
2022-10-22T00:06:10.147Z,100528.06
2022-10-22T00:08:38.580Z,100501.78
2022-10-22T00:11:10.782Z,100482.03
2022-10-22T00:13:37.560Z,100520.63
2022-10-22T00:16:04.637Z,100482.88
2022-10-22T00:18:31.386Z,100482.53
2022-10-22T00:20:58.240Z,100503.66
2022-10-22T00:23:24.835Z,100517.44
2022-10-22T00:25:53.847Z,100519.47
2022-10-22T00:28:20.642Z,100498.47
2022-10-22T00:30:47.564Z,100537.44
2022-10-22T00:33:14.236Z,100494.47
2022-10-22T00:35:40.833Z,100527.53
2022-10-22T00:38:07.546Z,100536.56
2022-10-22T00:40:34.224Z,100506.50
2022-10-22T00:43:02.210Z,100518.72
2022-10-22T00:45:29.375Z,100485.91
2022-10-22T00:48:00.829Z,100506.91
2022-10-22T00:50:32.245Z,100491.00
2022-10-22T00:52:59.284Z,100484.56
2022-10-22T00:55:27.832Z,100517.59
2022-10-22T00:57:56.418Z,100487.78
2022-10-22T01:00:25.105Z,100503.69
2022-10-22T01:02:53.436Z,100495.47
2022-10-22T01:05:20.964Z,100496.47
2022-10-22T01:07:49.537Z,100458.72
2022-10-22T01:10:26.436Z,100488.03
2022-10-22T01:13:01.864Z,100498.19
2022-10-22T01:15:37.535Z,100491.19
2022-10-22T01:18:08.133Z,100466.28
2022-10-22T01:20:58.033Z,100467.03
2022-10-22T01:23:42.785Z,100447.75
2022-10-22T01:26:20.795Z,100447.34
2022-10-22T01:28:58.653Z,100405.38
2022-10-22T01:31:29.397Z,100468.94
2022-10-22T01:33:58.477Z,100477.88
2022-10-22T01:36:25.911Z,100467.09
2022-10-22T01:38:54.068Z,100442.28
2022-10-22T01:41:20.723Z,100461.31
2022-10-22T01:43:47.302Z,100442.81
2022-10-22T01:46:18.245Z,100441.19
2022-10-22T01:48:55.131Z,100440.97
2022-10-22T01:51:36.770Z,100429.44
2022-10-22T01:54:09.980Z,100434.66
2022-10-22T01:56:53.523Z,100459.56
2022-10-22T01:59:32.617Z,100461.06
2022-10-22T02:02:10.628Z,100463.34
2022-10-22T02:04:44.946Z,100453.06
2022-10-22T02:07:15.132Z,100465.47
2022-10-22T02:09:43.734Z,100415.09
2022-10-22T02:12:12.845Z,100444.50
2022-10-22T02:14:43.455Z,100460.25
2022-10-22T02:17:16.823Z,100424.91
2022-10-22T02:19:50.251Z,100450.56
2022-10-22T02:22:17.633Z,100446.47
2022-10-22T02:24:44.759Z,100442.91
2022-10-22T02:27:25.761Z,100434.00
2022-10-22T02:29:58.926Z,100447.53
2022-10-22T02:32:32.748Z,100465.31
2022-10-22T02:35:00.729Z,100446.78
2022-10-22T02:37:28.309Z,100449.13
2022-10-22T02:39:55.337Z,100448.03
2022-10-22T02:42:23.701Z,100462.78
2022-10-22T02:44:50.344Z,100446.25
2022-10-22T02:47:17.018Z,100465.25
2022-10-22T02:49:45.051Z,100452.56
2022-10-22T02:52:11.668Z,100465.63
2022-10-22T02:54:38.323Z,100461.91
2022-10-22T02:57:05.024Z,100458.28
2022-10-22T02:59:31.628Z,100421.66
2022-10-22T03:01:58.318Z,100452.44
2022-10-22T03:04:24.986Z,100418.56
2022-10-22T03:06:53.077Z,100433.47
2022-10-22T03:09:22.636Z,100426.06
2022-10-22T03:11:51.676Z,100425.06
2022-10-22T03:14:18.584Z,100464.78
2022-10-22T03:16:45.269Z,100421.69
2022-10-22T03:19:11.865Z,100459.44
2022-10-22T03:21:42.369Z,100449.75
2022-10-22T03:24:13.676Z,100427.31
2022-10-22T03:26:41.955Z,100425.69
2022-10-22T03:29:10.290Z,100453.91
2022-10-22T03:31:37.039Z,100425.97
2022-10-22T03:34:03.656Z,100453.50
2022-10-22T03:36:31.376Z,100450.94
2022-10-22T03:38:59.048Z,100419.88
2022-10-22T03:41:27.672Z,100450.66
2022-10-22T03:43:55.061Z,100429.94
2022-10-22T03:46:21.700Z,100452.16
2022-10-22T03:48:48.300Z,100453.50
2022-10-22T03:51:15.048Z,100450.78
2022-10-22T03:53:41.692Z,100454.38
2022-10-22T03:56:09.216Z,100434.38
2022-10-22T03:58:37.683Z,100409.34
2022-10-22T04:01:05.430Z,100405.47
2022-10-22T04:03:32.167Z,100420.34
2022-10-22T04:06:01.809Z,100404.34
2022-10-22T04:08:28.577Z,100429.31
2022-10-22T04:10:55.143Z,100425.31
2022-10-22T04:13:21.800Z,100428.19
2022-10-22T04:15:49.835Z,100430.78
2022-10-22T04:18:16.493Z,100387.97
2022-10-22T04:20:43.195Z,100405.19
2022-10-22T04:23:09.779Z,100424.31
2022-10-22T04:25:36.410Z,100404.47
2022-10-22T04:28:03.148Z,100433.13
2022-10-22T04:30:29.748Z,100410.41
2022-10-22T04:32:57.757Z,100429.91
2022-10-22T04:37:51.867Z,100382.16
2022-10-22T04:40:18.628Z,100405.06
2022-10-22T04:42:45.241Z,100398.88
2022-10-22T04:45:11.889Z,100380.38
2022-10-22T04:47:39.064Z,100418.22
2022-10-22T04:50:08.333Z,100395.88
2022-10-22T04:52:35.056Z,100395.72
2022-10-22T04:55:01.674Z,100372.91
2022-10-22T04:57:29.599Z,100363.88
2022-10-22T04:59:56.196Z,100341.72
2022-10-22T05:02:22.867Z,100395.91
2022-10-22T05:04:49.611Z,100378.06
2022-10-22T05:07:17.797Z,100406.50
2022-10-22T05:09:44.515Z,100412.69
2022-10-22T05:12:11.144Z,100381.56
2022-10-22T05:14:41.405Z,100389.25
2022-10-22T05:17:10.696Z,100382.53
2022-10-22T05:19:37.516Z,100369.13
2022-10-22T05:22:05.477Z,100367.78
2022-10-22T05:24:34.361Z,100385.75
2022-10-22T05:27:01.242Z,100374.22
2022-10-22T05:29:28.066Z,100415.75
2022-10-22T05:31:55.100Z,100424.25
2022-10-22T05:34:21.854Z,100383.47
2022-10-22T05:36:48.511Z,100404.84
2022-10-22T05:39:15.235Z,100445.66
2022-10-22T05:41:43.247Z,100424.25
2022-10-22T05:44:12.097Z,100444.03
2022-10-22T05:46:38.725Z,100468.47
2022-10-22T05:49:06.820Z,100448.31
2022-10-22T05:51:35.766Z,100435.16
2022-10-22T05:54:08.490Z,100456.66
2022-10-22T05:56:35.652Z,100417.56
2022-10-22T06:01:35.660Z,100452.44
2022-10-22T06:04:07.392Z,100450.03
2022-10-22T06:06:36.201Z,100449.22
2022-10-22T06:09:06.608Z,100453.47
2022-10-22T06:11:35.174Z,100469.81
2022-10-22T06:14:03.718Z,100465.00
2022-10-22T06:16:31.594Z,100429.88
2022-10-22T06:18:59.536Z,100442.31
2022-10-22T06:21:26.268Z,100466.75
2022-10-22T06:23:56.141Z,100404.72
2022-10-22T06:26:27.875Z,100448.72
2022-10-22T06:28:55.166Z,100464.34
2022-10-22T06:31:23.612Z,100452.63
2022-10-22T06:33:50.321Z,100472.09
2022-10-22T06:36:19.743Z,100460.69
2022-10-22T06:38:46.550Z,100481.78
2022-10-22T06:41:15.707Z,100411.84
2022-10-22T06:43:46.726Z,100477.72
2022-10-22T06:46:17.605Z,100473.22
2022-10-22T06:48:52.087Z,100447.72
2022-10-22T06:51:19.639Z,100409.28
2022-10-22T06:53:46.509Z,100427.72
2022-10-22T06:56:16.136Z,100478.56
2022-10-22T06:58:46.458Z,100484.91
2022-10-22T07:01:15.697Z,100448.56
2022-10-22T07:03:42.985Z,100434.78
2022-10-22T07:06:12.658Z,100454.47
2022-10-22T07:08:42.499Z,100443.34
2022-10-22T07:11:11.577Z,100442.31
2022-10-22T07:13:38.751Z,100479.28
2022-10-22T07:16:07.132Z,100483.25
2022-10-22T07:18:35.071Z,100493.38
2022-10-22T07:21:05.597Z,100469.56
2022-10-22T07:23:33.708Z,100491.56
2022-10-22T07:26:00.768Z,100498.44
2022-10-22T07:28:27.368Z,100492.53
2022-10-22T07:30:54.143Z,100488.41
2022-10-22T07:33:21.057Z,100478.13
2022-10-22T07:35:47.798Z,100488.19
2022-10-22T07:38:14.613Z,100431.97
2022-10-22T07:40:42.652Z,100482.88
2022-10-22T07:43:09.339Z,100505.16
2022-10-22T07:45:36.014Z,100493.38
2022-10-22T07:48:02.837Z,100496.00
2022-10-22T07:50:29.536Z,100475.00
2022-10-22T07:52:58.444Z,100481.66
2022-10-22T07:55:25.163Z,100476.16
2022-10-22T07:57:53.285Z,100453.97
2022-10-22T08:00:23.067Z,100470.09
2022-10-22T08:02:52.025Z,100473.91
2022-10-22T08:05:18.878Z,100482.53
2022-10-22T08:07:45.610Z,100475.78
2022-10-22T08:10:13.036Z,100444.28
2022-10-22T08:12:40.783Z,100469.28
2022-10-22T08:15:10.204Z,100452.66
2022-10-22T08:17:37.059Z,100476.41
2022-10-22T08:20:04.195Z,100444.66
2022-10-22T08:22:30.805Z,100460.53
2022-10-22T08:24:57.471Z,100441.47
2022-10-22T08:27:24.129Z,100475.81
2022-10-22T08:29:50.907Z,100455.47
2022-10-22T08:32:19.001Z,100495.03
2022-10-22T08:34:45.629Z,100496.06
2022-10-22T08:37:12.273Z,100479.28
2022-10-22T08:39:39.083Z,100455.03
2022-10-22T08:42:17.624Z,100463.00
2022-10-22T08:45:00.256Z,100458.06
2022-10-22T08:47:47.303Z,100479.59
2022-10-22T08:50:19.253Z,100496.66
2022-10-22T08:52:53.731Z,100484.50
2022-10-22T08:55:24.249Z,100454.59
2022-10-22T08:57:59.824Z,100519.03
2022-10-22T09:00:37.320Z,100486.38
2022-10-22T09:03:27.692Z,100501.56
2022-10-22T09:06:03.532Z,100506.91
2022-10-22T09:08:30.241Z,100494.16
2022-10-22T09:11:04.184Z,100527.53
2022-10-22T09:13:30.897Z,100504.41
2022-10-22T09:16:00.590Z,100519.72
2022-10-22T09:18:39.368Z,100532.59
2022-10-22T09:21:17.817Z,100493.81
2022-10-22T09:23:54.513Z,100486.00
2022-10-22T09:26:21.585Z,100496.00
2022-10-22T09:28:51.073Z,100516.69
2022-10-22T09:31:21.599Z,100505.69
2022-10-22T09:33:54.921Z,100505.22
2022-10-22T09:36:23.193Z,100485.72
2022-10-22T09:38:53.247Z,100493.66
2022-10-22T09:41:23.648Z,100490.19
2022-10-22T09:43:50.334Z,100517.97
2022-10-22T09:46:28.064Z,100496.13
2022-10-22T09:49:06.710Z,100474.44
2022-10-22T09:51:56.302Z,100500.34
2022-10-22T09:54:38.314Z,100510.47
2022-10-22T09:57:09.634Z,100474.22
2022-10-22T09:59:41.512Z,100443.91
2022-10-22T10:02:37.521Z,100437.28
2022-10-22T10:05:30.609Z,100520.81
2022-10-22T10:08:02.631Z,100508.25
2022-10-22T10:10:41.051Z,100520.09
2022-10-22T10:13:27.571Z,100504.78
2022-10-22T10:15:59.241Z,100518.06
2022-10-22T10:18:48.334Z,100473.28
2022-10-22T10:21:30.904Z,100463.56
2022-10-22T10:24:05.162Z,100519.94
2022-10-22T10:26:37.767Z,100444.34
2022-10-22T10:29:24.314Z,100448.97
2022-10-22T10:32:06.756Z,100428.63
2022-10-22T10:34:43.803Z,100492.31
2022-10-22T10:37:21.502Z,100478.69
2022-10-22T10:40:26.369Z,100457.00
2022-10-22T10:42:58.896Z,100443.94
2022-10-22T10:45:33.266Z,100414.63
2022-10-22T10:48:41.119Z,100470.63
2022-10-22T10:51:18.709Z,100467.63
2022-10-22T10:54:03.856Z,100466.91
2022-10-22T10:56:39.931Z,100470.78
2022-10-22T10:59:16.620Z,100459.59
2022-10-22T11:01:58.084Z,100462.00
2022-10-22T11:04:45.853Z,100412.59
2022-10-22T11:07:30.203Z,100451.75
2022-10-22T11:10:08.740Z,100424.44
2022-10-22T11:12:43.422Z,100431.72
2022-10-22T11:15:22.953Z,100439.88
2022-10-22T11:17:54.245Z,100391.94
2022-10-22T11:20:25.477Z,100453.66
2022-10-22T11:23:18.280Z,100443.81
2022-10-22T11:25:47.101Z,100434.31
2022-10-22T11:28:20.416Z,100410.41
2022-10-22T11:30:54.372Z,100435.41
2022-10-22T11:33:26.702Z,100434.84
2022-10-22T11:35:53.412Z,100424.25
2022-10-22T11:38:24.301Z,100384.47
2022-10-22T11:40:57.342Z,100417.22
2022-10-22T11:43:29.794Z,100418.13
2022-10-22T11:46:08.371Z,100403.25
2022-10-22T11:48:37.992Z,100413.78
2022-10-22T11:51:37.047Z,100414.22
2022-10-22T11:54:23.549Z,100424.34
2022-10-22T11:56:52.993Z,100419.47
2022-10-22T11:59:39.072Z,100398.25
2022-10-22T12:02:24.215Z,100377.19
2022-10-22T12:04:50.913Z,100401.28
2022-10-22T12:07:35.313Z,100403.31
2022-10-22T12:10:05.996Z,100418.34
2022-10-22T12:12:38.737Z,100394.34
2022-10-22T12:15:23.196Z,100389.13
2022-10-22T12:17:50.292Z,100409.22
2022-10-22T12:20:17.372Z,100410.69
2022-10-22T12:22:46.572Z,100386.38
2022-10-22T12:25:17.198Z,100402.38
2022-10-22T12:27:44.214Z,100370.50
2022-10-22T12:30:18.793Z,100393.47
2022-10-22T12:32:45.866Z,100389.47
2022-10-22T12:35:19.141Z,100367.84
2022-10-22T12:37:49.969Z,100381.28
2022-10-22T12:40:19.080Z,100382.97
2022-10-22T12:42:51.536Z,100376.19
2022-10-22T12:45:18.281Z,100347.22
2022-10-22T12:47:50.063Z,100340.19
2022-10-22T12:50:19.960Z,100374.94
2022-10-22T12:52:48.759Z,100345.63
2022-10-22T12:55:17.038Z,100340.19
2022-10-22T12:57:46.156Z,100327.16
2022-10-22T13:00:25.633Z,100347.66
2022-10-22T13:02:52.798Z,100353.41
2022-10-22T13:05:25.305Z,100356.50
2022-10-22T13:07:57.859Z,100346.28
2022-10-22T13:10:26.378Z,100336.09
2022-10-22T13:12:56.067Z,100357.31
2022-10-22T13:15:35.601Z,100338.28
2022-10-22T13:18:16.152Z,100341.09
2022-10-22T13:20:54.497Z,100267.94
2022-10-22T13:23:24.717Z,100330.75
2022-10-22T13:26:03.596Z,100301.75
2022-10-22T13:28:32.082Z,100317.53
2022-10-22T13:31:00.793Z,100293.97
2022-10-22T13:33:30.403Z,100313.94
2022-10-22T13:35:57.206Z,100317.22
2022-10-22T13:38:26.952Z,100309.63
2022-10-22T13:40:54.567Z,100324.78
2022-10-22T13:43:22.501Z,100333.81
2022-10-22T13:45:52.920Z,100302.47
2022-10-22T13:48:27.245Z,100330.78
2022-10-22T13:50:56.069Z,100265.19
2022-10-22T13:53:25.962Z,100301.22
2022-10-22T13:56:16.617Z,100302.47
2022-10-22T13:58:52.039Z,100259.59
2022-10-22T14:01:23.696Z,100298.91
2022-10-22T14:03:53.284Z,100327.97
2022-10-22T14:06:22.147Z,100297.91
2022-10-22T14:08:56.896Z,100321.00
2022-10-22T14:11:30.309Z,100313.97
2022-10-22T14:14:01.825Z,100379.91
2022-10-22T14:16:29.178Z,100429.50
2022-10-22T14:18:58.275Z,100446.47
2022-10-22T14:21:25.287Z,100410.59
2022-10-22T14:23:58.699Z,100481.59
